sensor_id;sensor_type;location;lat;lon;timestamp;P1;durP1;ratioP1;P2;durP2;ratioP2
70426;SDS011;57872;55.432;37.248;2022-11-11T00:02:39;38.65;;;17.77;;
70426;SDS011;57872;55.432;37.248;2022-11-11T00:07:58;41.95;;;17.83;;
70426;SDS011;57872;55.432;37.248;2022-11-11T00:13:22;34.35;;;15.75;;
70426;SDS011;57872;55.432;37.248;2022-11-11T00:19:14;35.70;;;16.10;;
70426;SDS011;57872;55.432;37.248;2022-11-11T00:25:06;30.58;;;14.15;;
70426;SDS011;57872;55.432;37.248;2022-11-11T00:30:37;30.50;;;14.63;;
70426;SDS011;57872;55.432;37.248;2022-11-11T00:36:22;30.03;;;13.37;;
70426;SDS011;57872;55.432;37.248;2022-11-11T00:41:59;30.17;;;12.60;;
70426;SDS011;57872;55.432;37.248;2022-11-11T00:47:52;28.17;;;13.25;;
70426;SDS011;57872;55.432;37.248;2022-11-11T00:53:33;25.30;;;12.02;;
70426;SDS011;57872;55.432;37.248;2022-11-11T00:58:59;50.80;;;23.38;;
70426;SDS011;57872;55.432;37.248;2022-11-11T01:04:54;23.20;;;11.10;;
70426;SDS011;57872;55.432;37.248;2022-11-11T01:10:23;23.10;;;10.20;;
70426;SDS011;57872;55.432;37.248;2022-11-11T01:16:13;28.42;;;11.70;;
70426;SDS011;57872;55.432;37.248;2022-11-11T01:21:46;22.65;;;10.30;;
70426;SDS011;57872;55.432;37.248;2022-11-11T01:27:06;21.15;;;10.05;;
70426;SDS011;57872;55.432;37.248;2022-11-11T01:33:08;17.42;;;9.65;;
70426;SDS011;57872;55.432;37.248;2022-11-11T01:38:59;18.95;;;9.20;;
70426;SDS011;57872;55.432;37.248;2022-11-11T01:44:59;22.38;;;9.68;;
70426;SDS011;57872;55.432;37.248;2022-11-11T01:50:53;17.85;;;9.35;;
70426;SDS011;57872;55.432;37.248;2022-11-11T01:56:19;17.98;;;8.57;;
70426;SDS011;57872;55.432;37.248;2022-11-11T02:01:45;22.90;;;10.43;;
70426;SDS011;57872;55.432;37.248;2022-11-11T02:07:06;20.73;;;9.27;;
70426;SDS011;57872;55.432;37.248;2022-11-11T02:12:47;18.05;;;8.32;;
70426;SDS011;57872;55.432;37.248;2022-11-11T02:18:43;16.65;;;8.27;;
70426;SDS011;57872;55.432;37.248;2022-11-11T02:24:43;18.80;;;7.90;;
70426;SDS011;57872;55.432;37.248;2022-11-11T02:30:24;15.35;;;7.32;;
70426;SDS011;57872;55.432;37.248;2022-11-11T02:35:44;18.13;;;8.65;;
70426;SDS011;57872;55.432;37.248;2022-11-11T02:41:16;17.17;;;7.18;;
70426;SDS011;57872;55.432;37.248;2022-11-11T02:46:55;15.13;;;7.25;;
70426;SDS011;57872;55.432;37.248;2022-11-11T02:52:14;13.32;;;6.05;;
70426;SDS011;57872;55.432;37.248;2022-11-11T02:57:36;12.32;;;6.00;;
70426;SDS011;57872;55.432;37.248;2022-11-11T03:02:55;16.85;;;7.07;;
70426;SDS011;57872;55.432;37.248;2022-11-11T03:08:14;14.02;;;6.75;;
70426;SDS011;57872;55.432;37.248;2022-11-11T03:13:37;12.15;;;6.13;;
70426;SDS011;57872;55.432;37.248;2022-11-11T03:19:08;14.45;;;6.55;;
70426;SDS011;57872;55.432;37.248;2022-11-11T03:24:28;14.20;;;6.75;;
70426;SDS011;57872;55.432;37.248;2022-11-11T03:30:08;14.88;;;6.65;;
70426;SDS011;57872;55.432;37.248;2022-11-11T03:35:28;13.85;;;6.50;;
70426;SDS011;57872;55.432;37.248;2022-11-11T03:40:48;16.05;;;7.55;;
70426;SDS011;57872;55.432;37.248;2022-11-11T03:46:10;13.40;;;7.05;;
70426;SDS011;57872;55.432;37.248;2022-11-11T03:51:36;15.55;;;7.30;;
70426;SDS011;57872;55.432;37.248;2022-11-11T03:56:58;17.08;;;7.70;;
70426;SDS011;57872;55.432;37.248;2022-11-11T04:02:47;17.20;;;7.50;;
70426;SDS011;57872;55.432;37.248;2022-11-11T04:08:29;16.85;;;6.90;;
70426;SDS011;57872;55.432;37.248;2022-11-11T04:14:09;15.60;;;6.68;;
70426;SDS011;57872;55.432;37.248;2022-11-11T04:19:52;16.90;;;8.07;;
70426;SDS011;57872;55.432;37.248;2022-11-11T04:25:30;15.35;;;7.75;;
70426;SDS011;57872;55.432;37.248;2022-11-11T04:31:08;19.25;;;7.88;;
70426;SDS011;57872;55.432;37.248;2022-11-11T04:36:33;16.40;;;7.50;;
70426;SDS011;57872;55.432;37.248;2022-11-11T04:41:58;16.38;;;6.72;;
70426;SDS011;57872;55.432;37.248;2022-11-11T04:47:30;17.35;;;6.68;;
70426;SDS011;57872;55.432;37.248;2022-11-11T04:52:57;15.40;;;6.95;;
70426;SDS011;57872;55.432;37.248;2022-11-11T04:58:42;14.15;;;6.68;;
70426;SDS011;57872;55.432;37.248;2022-11-11T05:04:04;13.82;;;7.05;;
70426;SDS011;57872;55.432;37.248;2022-11-11T05:09:24;14.02;;;7.63;;
70426;SDS011;57872;55.432;37.248;2022-11-11T05:14:44;13.48;;;6.63;;
70426;SDS011;57872;55.432;37.248;2022-11-11T05:20:32;15.38;;;7.50;;
70426;SDS011;57872;55.432;37.248;2022-11-11T05:26:15;17.23;;;6.93;;
70426;SDS011;57872;55.432;37.248;2022-11-11T05:31:45;13.25;;;6.07;;
70426;SDS011;57872;55.432;37.248;2022-11-11T05:37:19;16.38;;;7.22;;
70426;SDS011;57872;55.432;37.248;2022-11-11T05:43:01;15.90;;;7.97;;
70426;SDS011;57872;55.432;37.248;2022-11-11T05:48:35;17.08;;;7.43;;
70426;SDS011;57872;55.432;37.248;2022-11-11T05:54:17;18.33;;;7.30;;
70426;SDS011;57872;55.432;37.248;2022-11-11T05:59:39;16.13;;;7.30;;
70426;SDS011;57872;55.432;37.248;2022-11-11T06:05:05;14.02;;;7.30;;
70426;SDS011;57872;55.432;37.248;2022-11-11T06:16:14;17.77;;;8.10;;
70426;SDS011;57872;55.432;37.248;2022-11-11T06:21:33;17.88;;;7.88;;
70426;SDS011;57872;55.432;37.248;2022-11-11T06:27:13;17.42;;;8.40;;
70426;SDS011;57872;55.432;37.248;2022-11-11T06:32:41;15.68;;;8.15;;
70426;SDS011;57872;55.432;37.248;2022-11-11T06:38:01;17.50;;;8.05;;
70426;SDS011;57872;55.432;37.248;2022-11-11T06:43:35;19.17;;;9.13;;
70426;SDS011;57872;55.432;37.248;2022-11-11T06:49:05;21.20;;;9.05;;
70426;SDS011;57872;55.432;37.248;2022-11-11T06:55:00;19.98;;;9.07;;
70426;SDS011;57872;55.432;37.248;2022-11-11T07:00:19;23.35;;;8.75;;
70426;SDS011;57872;55.432;37.248;2022-11-11T07:05:38;20.20;;;8.88;;
70426;SDS011;57872;55.432;37.248;2022-11-11T07:11:05;22.98;;;8.70;;
70426;SDS011;57872;55.432;37.248;2022-11-11T07:16:25;20.80;;;9.25;;
70426;SDS011;57872;55.432;37.248;2022-11-11T07:21:50;19.15;;;8.85;;
70426;SDS011;57872;55.432;37.248;2022-11-11T07:27:15;22.08;;;9.27;;
70426;SDS011;57872;55.432;37.248;2022-11-11T07:32:34;22.00;;;9.20;;
70426;SDS011;57872;55.432;37.248;2022-11-11T07:38:00;17.15;;;8.15;;
70426;SDS011;57872;55.432;37.248;2022-11-11T07:43:33;21.17;;;9.85;;
70426;SDS011;57872;55.432;37.248;2022-11-11T07:49:11;18.35;;;8.57;;
70426;SDS011;57872;55.432;37.248;2022-11-11T07:54:33;17.50;;;8.02;;
70426;SDS011;57872;55.432;37.248;2022-11-11T07:59:52;19.70;;;8.10;;
70426;SDS011;57872;55.432;37.248;2022-11-11T08:05:18;19.20;;;7.95;;
70426;SDS011;57872;55.432;37.248;2022-11-11T08:10:44;18.13;;;8.02;;
70426;SDS011;57872;55.432;37.248;2022-11-11T08:16:09;20.73;;;8.80;;
70426;SDS011;57872;55.432;37.248;2022-11-11T08:21:44;17.23;;;7.90;;
70426;SDS011;57872;55.432;37.248;2022-11-11T08:27:16;15.38;;;7.18;;
70426;SDS011;57872;55.432;37.248;2022-11-11T08:32:39;15.85;;;6.78;;
70426;SDS011;57872;55.432;37.248;2022-11-11T08:38:12;15.85;;;7.60;;
70426;SDS011;57872;55.432;37.248;2022-11-11T08:43:31;13.07;;;6.82;;
70426;SDS011;57872;55.432;37.248;2022-11-11T08:48:51;12.60;;;6.50;;
70426;SDS011;57872;55.432;37.248;2022-11-11T08:54:10;14.63;;;6.60;;
70426;SDS011;57872;55.432;37.248;2022-11-11T08:59:33;14.57;;;6.53;;
70426;SDS011;57872;55.432;37.248;2022-11-11T09:05:13;14.40;;;6.35;;
70426;SDS011;57872;55.432;37.248;2022-11-11T09:10:45;14.05;;;6.40;;
70426;SDS011;57872;55.432;37.248;2022-11-11T09:16:05;13.48;;;6.75;;
70426;SDS011;57872;55.432;37.248;2022-11-11T09:21:28;15.68;;;7.22;;
70426;SDS011;57872;55.432;37.248;2022-11-11T09:26:59;14.48;;;6.93;;
70426;SDS011;57872;55.432;37.248;2022-11-11T09:32:18;13.93;;;6.50;;
70426;SDS011;57872;55.432;37.248;2022-11-11T09:37:40;13.95;;;6.25;;
70426;SDS011;57872;55.432;37.248;2022-11-11T09:43:18;12.23;;;6.22;;
70426;SDS011;57872;55.432;37.248;2022-11-11T09:55:19;13.70;;;5.68;;
70426;SDS011;57872;55.432;37.248;2022-11-11T10:07:26;10.80;;;5.68;;
70426;SDS011;57872;55.432;37.248;2022-11-11T10:12:53;13.15;;;5.68;;
70426;SDS011;57872;55.432;37.248;2022-11-11T10:24:16;11.73;;;5.72;;
70426;SDS011;57872;55.432;37.248;2022-11-11T10:30:22;10.30;;;5.10;;
70426;SDS011;57872;55.432;37.248;2022-11-11T10:36:01;10.48;;;5.10;;
70426;SDS011;57872;55.432;37.248;2022-11-11T10:41:34;10.93;;;5.10;;
70426;SDS011;57872;55.432;37.248;2022-11-11T10:53:20;11.15;;;5.07;;
70426;SDS011;57872;55.432;37.248;2022-11-11T10:59:26;10.32;;;5.18;;
70426;SDS011;57872;55.432;37.248;2022-11-11T11:05:02;10.90;;;4.80;;
70426;SDS011;57872;55.432;37.248;2022-11-11T11:10:32;11.82;;;5.00;;
70426;SDS011;57872;55.432;37.248;2022-11-11T11:16:01;10.77;;;5.45;;
70426;SDS011;57872;55.432;37.248;2022-11-11T11:22:08;12.40;;;5.07;;
70426;SDS011;57872;55.432;37.248;2022-11-11T11:27:32;10.85;;;5.05;;
70426;SDS011;57872;55.432;37.248;2022-11-11T11:33:06;10.98;;;4.93;;
70426;SDS011;57872;55.432;37.248;2022-11-11T11:38:47;10.00;;;5.15;;
70426;SDS011;57872;55.432;37.248;2022-11-11T11:56:40;10.45;;;4.65;;
70426;SDS011;57872;55.432;37.248;2022-11-11T12:02:19;10.63;;;5.13;;
70426;SDS011;57872;55.432;37.248;2022-11-11T12:26:00;10.52;;;5.25;;
70426;SDS011;57872;55.432;37.248;2022-11-11T12:31:33;11.30;;;5.30;;
70426;SDS011;57872;55.432;37.248;2022-11-11T12:43:24;10.32;;;4.93;;
70426;SDS011;57872;55.432;37.248;2022-11-11T13:00:20;9.55;;;4.97;;
70426;SDS011;57872;55.432;37.248;2022-11-11T13:06:04;9.30;;;4.45;;
70426;SDS011;57872;55.432;37.248;2022-11-11T13:17:27;10.55;;;4.43;;
70426;SDS011;57872;55.432;37.248;2022-11-11T13:22:54;10.55;;;4.68;;
70426;SDS011;57872;55.432;37.248;2022-11-11T13:28:17;8.53;;;4.07;;
70426;SDS011;57872;55.432;37.248;2022-11-11T13:33:44;8.18;;;4.10;;
70426;SDS011;57872;55.432;37.248;2022-11-11T13:39:06;8.20;;;3.88;;
70426;SDS011;57872;55.432;37.248;2022-11-11T13:44:32;8.18;;;3.70;;
70426;SDS011;57872;55.432;37.248;2022-11-11T13:55:40;8.57;;;3.55;;
70426;SDS011;57872;55.432;37.248;2022-11-11T14:01:05;8.70;;;3.45;;
70426;SDS011;57872;55.432;37.248;2022-11-11T14:06:35;8.90;;;3.55;;
70426;SDS011;57872;55.432;37.248;2022-11-11T14:17:48;7.40;;;3.63;;
70426;SDS011;57872;55.432;37.248;2022-11-11T14:28:40;7.35;;;3.50;;
70426;SDS011;57872;55.432;37.248;2022-11-11T14:34:22;7.78;;;3.00;;
70426;SDS011;57872;55.432;37.248;2022-11-11T14:40:10;8.73;;;3.33;;
70426;SDS011;57872;55.432;37.248;2022-11-11T14:50:49;9.10;;;3.80;;
70426;SDS011;57872;55.432;37.248;2022-11-11T14:56:13;7.60;;;3.38;;
70426;SDS011;57872;55.432;37.248;2022-11-11T15:01:42;8.75;;;3.58;;
70426;SDS011;57872;55.432;37.248;2022-11-11T15:07:31;9.90;;;3.63;;
70426;SDS011;57872;55.432;37.248;2022-11-11T15:18:26;7.38;;;3.20;;
70426;SDS011;57872;55.432;37.248;2022-11-11T15:35:38;8.35;;;3.45;;
70426;SDS011;57872;55.432;37.248;2022-11-11T15:41:01;7.38;;;3.03;;
70426;SDS011;57872;55.432;37.248;2022-11-11T15:46:27;10.10;;;3.30;;
70426;SDS011;57872;55.432;37.248;2022-11-11T15:51:54;7.80;;;3.55;;
70426;SDS011;57872;55.432;37.248;2022-11-11T15:57:35;7.75;;;3.42;;
70426;SDS011;57872;55.432;37.248;2022-11-11T16:02:55;12.57;;;4.20;;
70426;SDS011;57872;55.432;37.248;2022-11-11T16:08:16;10.73;;;4.95;;
70426;SDS011;57872;55.432;37.248;2022-11-11T16:19:35;9.00;;;3.70;;
70426;SDS011;57872;55.432;37.248;2022-11-11T16:25:02;8.68;;;3.70;;
70426;SDS011;57872;55.432;37.248;2022-11-11T16:30:34;8.38;;;3.55;;
70426;SDS011;57872;55.432;37.248;2022-11-11T16:36:06;11.47;;;4.17;;
70426;SDS011;57872;55.432;37.248;2022-11-11T16:41:28;8.48;;;4.07;;
70426;SDS011;57872;55.432;37.248;2022-11-11T16:46:49;7.78;;;4.00;;
70426;SDS011;57872;55.432;37.248;2022-11-11T16:52:19;11.05;;;5.07;;
70426;SDS011;57872;55.432;37.248;2022-11-11T16:57:41;11.95;;;4.88;;
70426;SDS011;57872;55.432;37.248;2022-11-11T17:03:06;10.82;;;5.22;;
70426;SDS011;57872;55.432;37.248;2022-11-11T17:08:40;13.32;;;5.57;;
70426;SDS011;57872;55.432;37.248;2022-11-11T17:14:01;10.23;;;5.85;;
70426;SDS011;57872;55.432;37.248;2022-11-11T17:19:20;12.55;;;6.18;;
70426;SDS011;57872;55.432;37.248;2022-11-11T17:24:41;14.95;;;6.13;;
70426;SDS011;57872;55.432;37.248;2022-11-11T17:30:01;13.63;;;6.28;;
70426;SDS011;57872;55.432;37.248;2022-11-11T17:35:21;11.65;;;5.57;;
70426;SDS011;57872;55.432;37.248;2022-11-11T17:40:43;15.35;;;6.88;;
70426;SDS011;57872;55.432;37.248;2022-11-11T17:46:04;13.43;;;6.35;;
70426;SDS011;57872;55.432;37.248;2022-11-11T17:51:24;13.60;;;6.15;;
70426;SDS011;57872;55.432;37.248;2022-11-11T17:56:43;14.35;;;6.15;;
70426;SDS011;57872;55.432;37.248;2022-11-11T18:02:04;12.52;;;6.10;;
70426;SDS011;57872;55.432;37.248;2022-11-11T18:07:23;15.55;;;6.60;;
70426;SDS011;57872;55.432;37.248;2022-11-11T18:12:43;12.55;;;5.50;;
70426;SDS011;57872;55.432;37.248;2022-11-11T18:18:07;12.48;;;6.47;;
70426;SDS011;57872;55.432;37.248;2022-11-11T18:23:33;11.85;;;6.10;;
70426;SDS011;57872;55.432;37.248;2022-11-11T18:28:57;13.38;;;6.13;;
70426;SDS011;57872;55.432;37.248;2022-11-11T18:34:20;11.90;;;6.10;;
70426;SDS011;57872;55.432;37.248;2022-11-11T18:39:39;13.10;;;5.35;;
70426;SDS011;57872;55.432;37.248;2022-11-11T18:44:59;12.27;;;5.95;;
70426;SDS011;57872;55.432;37.248;2022-11-11T18:50:18;11.63;;;5.35;;
70426;SDS011;57872;55.432;37.248;2022-11-11T18:55:41;20.33;;;6.57;;
70426;SDS011;57872;55.432;37.248;2022-11-11T19:01:05;15.88;;;5.97;;
70426;SDS011;57872;55.432;37.248;2022-11-11T19:06:27;10.05;;;4.85;;
70426;SDS011;57872;55.432;37.248;2022-11-11T19:11:52;10.55;;;5.15;;
70426;SDS011;57872;55.432;37.248;2022-11-11T19:17:12;11.30;;;4.93;;
70426;SDS011;57872;55.432;37.248;2022-11-11T19:22:32;12.48;;;5.72;;
70426;SDS011;57872;55.432;37.248;2022-11-11T19:27:53;11.60;;;5.80;;
70426;SDS011;57872;55.432;37.248;2022-11-11T19:33:12;11.55;;;5.95;;
70426;SDS011;57872;55.432;37.248;2022-11-11T19:38:43;11.25;;;5.63;;
70426;SDS011;57872;55.432;37.248;2022-11-11T19:44:52;12.10;;;6.03;;
70426;SDS011;57872;55.432;37.248;2022-11-11T19:50:16;11.10;;;5.75;;
70426;SDS011;57872;55.432;37.248;2022-11-11T19:55:36;11.68;;;6.00;;
70426;SDS011;57872;55.432;37.248;2022-11-11T20:00:55;12.27;;;6.18;;
70426;SDS011;57872;55.432;37.248;2022-11-11T20:06:26;12.30;;;6.50;;
70426;SDS011;57872;55.432;37.248;2022-11-11T20:17:14;15.02;;;5.97;;
70426;SDS011;57872;55.432;37.248;2022-11-11T20:22:43;12.45;;;5.93;;
70426;SDS011;57872;55.432;37.248;2022-11-11T20:28:05;12.82;;;5.75;;
70426;SDS011;57872;55.432;37.248;2022-11-11T20:33:48;11.13;;;5.28;;
70426;SDS011;57872;55.432;37.248;2022-11-11T20:39:08;11.20;;;5.70;;
70426;SDS011;57872;55.432;37.248;2022-11-11T20:44:27;12.45;;;5.68;;
70426;SDS011;57872;55.432;37.248;2022-11-11T20:49:46;11.68;;;5.65;;
70426;SDS011;57872;55.432;37.248;2022-11-11T20:55:06;14.38;;;6.13;;
70426;SDS011;57872;55.432;37.248;2022-11-11T21:00:35;16.65;;;6.25;;
70426;SDS011;57872;55.432;37.248;2022-11-11T21:06:02;14.30;;;5.75;;
70426;SDS011;57872;55.432;37.248;2022-11-11T21:11:37;13.50;;;5.72;;
70426;SDS011;57872;55.432;37.248;2022-11-11T21:17:17;13.93;;;7.38;;
70426;SDS011;57872;55.432;37.248;2022-11-11T21:22:51;13.80;;;5.85;;
70426;SDS011;57872;55.432;37.248;2022-11-11T21:28:36;13.10;;;5.82;;
70426;SDS011;57872;55.432;37.248;2022-11-11T21:34:12;15.45;;;6.18;;
70426;SDS011;57872;55.432;37.248;2022-11-11T21:39:53;11.25;;;5.63;;
70426;SDS011;57872;55.432;37.248;2022-11-11T21:45:46;11.55;;;5.63;;
70426;SDS011;57872;55.432;37.248;2022-11-11T21:51:11;12.73;;;5.90;;
70426;SDS011;57872;55.432;37.248;2022-11-11T21:56:33;14.32;;;5.32;;
70426;SDS011;57872;55.432;37.248;2022-11-11T22:01:54;11.55;;;5.38;;
70426;SDS011;57872;55.432;37.248;2022-11-11T22:07:31;24.83;;;16.10;;
70426;SDS011;57872;55.432;37.248;2022-11-11T22:13:03;9.95;;;4.72;;
70426;SDS011;57872;55.432;37.248;2022-11-11T22:18:46;14.05;;;5.32;;
70426;SDS011;57872;55.432;37.248;2022-11-11T22:24:17;10.40;;;4.80;;
70426;SDS011;57872;55.432;37.248;2022-11-11T22:29:39;12.15;;;5.20;;
70426;SDS011;57872;55.432;37.248;2022-11-11T22:35:09;11.07;;;5.30;;
70426;SDS011;57872;55.432;37.248;2022-11-11T22:40:53;10.00;;;4.78;;
70426;SDS011;57872;55.432;37.248;2022-11-11T22:46:42;11.20;;;5.38;;
70426;SDS011;57872;55.432;37.248;2022-11-11T22:52:18;12.07;;;5.20;;
70426;SDS011;57872;55.432;37.248;2022-11-11T22:57:37;9.65;;;4.90;;
70426;SDS011;57872;55.432;37.248;2022-11-11T23:02:56;10.48;;;4.57;;
70426;SDS011;57872;55.432;37.248;2022-11-11T23:08:19;10.70;;;5.00;;
70426;SDS011;57872;55.432;37.248;2022-11-11T23:13:38;13.35;;;5.15;;
70426;SDS011;57872;55.432;37.248;2022-11-11T23:18:59;11.68;;;5.20;;
70426;SDS011;57872;55.432;37.248;2022-11-11T23:24:22;10.27;;;4.70;;
70426;SDS011;57872;55.432;37.248;2022-11-11T23:29:41;10.13;;;4.97;;
70426;SDS011;57872;55.432;37.248;2022-11-11T23:35:00;11.80;;;5.15;;
70426;SDS011;57872;55.432;37.248;2022-11-11T23:40:19;12.80;;;5.45;;
70426;SDS011;57872;55.432;37.248;2022-11-11T23:45:38;13.35;;;5.35;;
70426;SDS011;57872;55.432;37.248;2022-11-11T23:51:01;13.25;;;5.40;;
70426;SDS011;57872;55.432;37.248;2022-11-11T23:56:27;12.23;;;5.38;;
